createdAt,value
2022-08-04T00:01:49.042Z,20.6
2022-08-04T00:04:03.781Z,20.1
2022-08-04T00:06:18.699Z,20.4
2022-08-04T00:08:33.653Z,20.8
2022-08-04T00:10:48.351Z,17.8
2022-08-04T00:13:03.091Z,21.6
2022-08-04T00:15:20.039Z,19.2
2022-08-04T00:17:34.871Z,19.9
2022-08-04T00:19:49.649Z,19.9
2022-08-04T00:22:04.476Z,20.1
2022-08-04T00:24:45.515Z,20.4
2022-08-04T00:27:00.252Z,20.6
2022-08-04T00:29:15.202Z,19.8
2022-08-04T00:31:33.158Z,19.9
2022-08-04T00:33:57.622Z,19.4
2022-08-04T00:36:12.149Z,19.7
2022-08-04T00:38:27.216Z,19.7
2022-08-04T00:40:41.971Z,20.2
2022-08-04T00:43:01.068Z,20.9
2022-08-04T00:45:15.943Z,19.8
2022-08-04T00:47:58.169Z,20.9
2022-08-04T00:50:12.957Z,20.3
2022-08-04T00:52:51.418Z,20.1
2022-08-04T00:55:09.009Z,19.3
2022-08-04T00:57:28.526Z,20
2022-08-04T00:59:35.804Z,19.8
2022-08-04T01:01:50.623Z,19.8
2022-08-04T01:04:05.282Z,20
2022-08-04T01:06:20.184Z,20.1
2022-08-04T01:08:34.917Z,20.2
2022-08-04T03:52:23.269Z,17.6
2022-08-04T03:54:38.244Z,19.6
2022-08-04T03:56:52.973Z,18.9
2022-08-04T03:59:07.741Z,17.3
2022-08-04T04:01:22.747Z,15.4
2022-08-04T04:03:50.550Z,17.6
2022-08-04T04:06:17.035Z,17.6
2022-08-04T04:08:32.055Z,19.4
2022-08-04T04:10:59.836Z,17.8
2022-08-04T04:13:14.573Z,18.3
2022-08-04T04:15:29.461Z,18.4
2022-08-04T04:17:44.279Z,19.4
2022-08-04T04:19:59.181Z,18.9
2022-08-04T04:22:13.976Z,21
2022-08-04T04:24:32.699Z,19.8
2022-08-04T04:26:43.890Z,19.8
2022-08-04T04:29:34.392Z,19.2
2022-08-04T04:34:04.098Z,19.1
2022-08-04T04:36:18.844Z,19.1
2022-08-04T04:38:33.859Z,18.9
2022-08-04T04:40:48.631Z,18.9
2022-08-04T04:43:03.472Z,18.8
2022-08-04T04:45:25.027Z,19.3
2022-08-04T04:48:11.445Z,17.9
2022-08-04T04:50:28.557Z,20.3
2022-08-04T04:52:41.371Z,18.3
2022-08-04T04:54:56.249Z,17.5
2022-08-04T04:57:11.104Z,18.6
2022-08-04T04:59:42.607Z,18.8
2022-08-04T05:06:27.219Z,17.4
2022-08-04T05:09:02.577Z,19.3
2022-08-04T05:15:34.449Z,19.6
2022-08-04T05:17:49.135Z,20.4
2022-08-04T05:20:03.987Z,19.7
2022-08-04T05:22:18.835Z,20.1
2022-08-04T05:24:34.932Z,20.2
2022-08-04T05:26:48.595Z,21.6
2022-08-04T05:29:03.391Z,20.9
2022-08-04T05:31:18.314Z,21.2
2022-08-04T05:33:33.032Z,21.9
2022-08-04T05:36:40.361Z,21.9
2022-08-04T05:38:59.910Z,22.8
2022-08-04T05:41:14.531Z,23
2022-08-04T05:43:31.802Z,23.8
2022-08-04T05:45:46.608Z,23
2022-08-04T05:48:01.398Z,23.2
2022-08-04T05:50:18.270Z,23.4
2022-08-04T05:52:32.947Z,22.8
2022-08-04T05:54:47.677Z,23
2022-08-04T05:57:31.591Z,23.4
2022-08-04T05:59:46.960Z,23.9
2022-08-04T06:02:13.436Z,24.1
2022-08-04T06:04:28.435Z,24.8
2022-08-04T06:06:43.250Z,23.6
2022-08-04T06:09:16.153Z,24.4
2022-08-04T06:11:30.990Z,24.6
2022-08-04T06:14:22.219Z,23.6
2022-08-04T06:16:36.932Z,23.4
2022-08-04T06:21:24.637Z,23.1
2022-08-04T06:23:52.843Z,22
2022-08-04T06:25:58.128Z,22.9
2022-08-04T06:28:12.968Z,23.4
2022-08-04T06:30:27.757Z,23.5
2022-08-04T06:33:54.712Z,22.8
2022-08-04T06:36:02.527Z,23.8
2022-08-04T06:38:31.256Z,23.1
2022-08-04T06:40:48.426Z,23.4
2022-08-04T06:43:24.788Z,24.6
2022-08-04T06:45:39.580Z,24.6
2022-08-04T06:47:54.491Z,23.7
2022-08-04T06:51:48.654Z,24
2022-08-04T06:53:56.162Z,24.7
2022-08-04T06:56:10.927Z,23.8
2022-08-04T06:58:27.637Z,23.9
2022-08-04T07:00:40.971Z,23.7
2022-08-04T07:02:55.998Z,24.6
2022-08-04T07:05:10.828Z,25.2
2022-08-04T07:07:33.827Z,25.9
2022-08-04T07:09:45.231Z,26.3
2022-08-04T07:12:01.339Z,25.4
2022-08-04T07:14:16.223Z,26.8
2022-08-04T07:16:31.104Z,27.3
2022-08-04T07:18:46.018Z,27.3
2022-08-04T07:21:07.223Z,25.8
2022-08-04T07:23:42.873Z,25.2
2022-08-04T07:26:17.898Z,26.1
2022-08-04T07:28:50.660Z,26.3
2022-08-04T07:31:05.294Z,26.8
2022-08-04T07:33:22.399Z,26.8
2022-08-04T07:36:42.057Z,26.4
2022-08-04T07:38:55.982Z,28.1
2022-08-04T07:41:46.169Z,28.3
2022-08-04T07:43:50.165Z,28.9
2022-08-04T07:46:04.904Z,28.4
2022-08-04T07:48:22.677Z,29.1
2022-08-04T07:50:59.822Z,29.8
2022-08-04T07:53:56.351Z,29.4
2022-08-04T07:56:10.881Z,29.6
2022-08-04T07:58:43.200Z,29.4
2022-08-04T08:00:57.945Z,29.9
2022-08-04T08:03:12.839Z,29.9
2022-08-04T08:05:27.808Z,29.4
2022-08-04T08:08:18.722Z,30.6
2022-08-04T08:10:33.496Z,29.4
2022-08-04T08:13:57.891Z,28.7
2022-08-04T08:16:12.816Z,29.5
2022-08-04T08:18:30.753Z,30
2022-08-04T08:20:46.499Z,30.2
2022-08-04T08:23:01.983Z,31.9
2022-08-04T08:25:16.793Z,31
2022-08-04T08:27:31.600Z,32.6
2022-08-04T08:29:46.522Z,33.6
2022-08-04T08:32:15.974Z,34.1
2022-08-04T08:34:31.189Z,34.6
2022-08-04T08:36:46.103Z,34.4
2022-08-04T08:39:00.981Z,36
2022-08-04T08:41:15.730Z,38.9
2022-08-04T08:44:29.885Z,35.8
2022-08-04T08:46:50.536Z,36.1
2022-08-04T08:50:01.507Z,35.8
2022-08-04T08:52:06.305Z,34.4
2022-08-04T08:54:49.165Z,34.5
2022-08-04T08:57:03.915Z,34.4
2022-08-04T08:59:18.714Z,35
2022-08-04T09:01:33.993Z,34.2
2022-08-04T09:03:50.874Z,33.6
2022-08-04T09:06:05.719Z,33.4
2022-08-04T09:08:20.683Z,33.2
2022-08-04T09:10:35.340Z,36
2022-08-04T09:12:50.284Z,36.4
2022-08-04T09:15:05.160Z,36.4
2022-08-04T09:17:20.218Z,35.8
2022-08-04T09:19:41.346Z,38.1
2022-08-04T09:21:56.652Z,38.4
2022-08-04T09:24:36.029Z,37.9
2022-08-04T09:26:39.741Z,38.3
2022-08-04T09:29:08.262Z,38
2022-08-04T09:31:23.206Z,38.6
2022-08-04T09:34:02.026Z,37.5
2022-08-04T09:36:32.220Z,36.4
2022-08-04T09:38:51.579Z,36.3
2022-08-04T09:41:20.592Z,36.9
2022-08-04T09:43:57.401Z,36.6
2022-08-04T09:46:59.892Z,38
2022-08-04T09:49:14.637Z,36.4
2022-08-04T09:51:57.036Z,38.1
2022-08-04T09:54:01.561Z,36.3
2022-08-04T09:56:18.003Z,36.3
2022-08-04T09:58:32.747Z,36.7
2022-08-04T10:00:47.510Z,38.7
2022-08-04T10:03:02.885Z,37.8
2022-08-04T10:05:17.124Z,36.3
2022-08-04T10:07:32.081Z,37.2
2022-08-04T10:10:03.158Z,37.3
2022-08-04T10:12:18.063Z,37.1
2022-08-04T10:14:33.138Z,36.7
2022-08-04T10:16:47.961Z,37.2
2022-08-04T10:19:06.967Z,36.8
2022-08-04T10:21:33.088Z,36.1
2022-08-04T10:24:31.834Z,36.9
2022-08-04T10:27:25.750Z,37.4
2022-08-04T10:29:40.559Z,35.3
2022-08-04T10:31:55.438Z,36.1
2022-08-04T10:34:10.297Z,36.9
2022-08-04T10:36:25.178Z,36
2022-08-04T10:39:03.097Z,35.9
2022-08-04T10:41:30.486Z,35.9
2022-08-04T10:43:45.562Z,35.5
2022-08-04T10:46:01.241Z,37
2022-08-04T10:48:16.142Z,35.9
2022-08-04T10:50:40.048Z,35.3
2022-08-04T10:53:02.128Z,35.2
2022-08-04T10:55:18.295Z,34.4
2022-08-04T10:57:55.899Z,33.4
2022-08-04T11:00:20.985Z,33
2022-08-04T11:03:04.442Z,32.9
2022-08-04T11:05:19.370Z,33.1
2022-08-04T11:07:33.938Z,33.6
2022-08-04T11:09:48.836Z,33.4
2022-08-04T11:12:19.734Z,33.9
2022-08-04T11:14:34.583Z,33.8
2022-08-04T11:16:49.367Z,33.9
2022-08-04T11:19:04.217Z,33.3
2022-08-04T11:21:36.441Z,33.4
2022-08-04T11:23:51.374Z,33.6
2022-08-04T11:26:06.295Z,33.6
2022-08-04T11:28:21.170Z,33.4
2022-08-04T11:30:35.945Z,33.4
2022-08-04T11:32:50.841Z,34.2
2022-08-04T11:35:05.970Z,34.8
2022-08-04T11:37:20.819Z,34.8
2022-08-04T11:39:35.874Z,34.8
2022-08-04T11:41:50.771Z,34.8
2022-08-04T11:44:35.374Z,34.4
2022-08-04T11:46:50.224Z,33.9
2022-08-04T11:49:05.390Z,33.6
2022-08-04T11:51:30.618Z,33.8
2022-08-04T11:53:45.626Z,33.5
2022-08-04T11:56:12.600Z,33.1
2022-08-04T11:58:27.138Z,32.1
2022-08-04T12:00:41.899Z,31.9
2022-08-04T12:02:56.853Z,32
2022-08-04T12:05:23.355Z,31.4
2022-08-04T12:07:59.784Z,31.4
2022-08-04T12:10:14.652Z,30.1
2022-08-04T12:12:29.443Z,30.6
2022-08-04T12:14:44.346Z,30.9
2022-08-04T12:16:59.499Z,30.9
2022-08-04T12:19:26.018Z,31.5
2022-08-04T12:22:13.733Z,31.3
2022-08-04T12:24:28.450Z,31.9
2022-08-04T12:26:43.333Z,31.5
2022-08-04T12:29:12.682Z,31.8
2022-08-04T12:32:29.795Z,31.7
2022-08-04T12:35:07.449Z,31
2022-08-04T12:37:30.882Z,31.4
2022-08-04T12:40:21.852Z,30.9
2022-08-04T12:42:32.633Z,30
2022-08-04T12:44:55.409Z,30.4
2022-08-04T12:47:29.570Z,30.9
2022-08-04T12:49:44.354Z,30.9
2022-08-04T12:53:02.962Z,31.1
2022-08-04T12:55:10.259Z,30.8
2022-08-04T12:57:25.208Z,30.3
2022-08-04T12:59:46.569Z,30
2022-08-04T13:02:58.391Z,30.1
2022-08-04T13:05:16.948Z,30.1
2022-08-04T13:07:28.007Z,30.2
2022-08-04T13:09:42.782Z,29.9
2022-08-04T13:11:57.512Z,30.2
2022-08-04T13:14:28.328Z,31
2022-08-04T13:16:46.381Z,30.8
2022-08-04T13:18:57.982Z,31.1
2022-08-04T13:21:19.293Z,31.1
2022-08-04T13:24:31.069Z,30.2
2022-08-04T13:32:12.447Z,29.9
2022-08-04T13:34:27.227Z,29.1
2022-08-04T13:36:57.618Z,29.6
2022-08-04T13:39:12.405Z,28.6
2022-08-04T13:41:30.791Z,28.3
2022-08-04T13:44:35.513Z,27.3
2022-08-04T13:46:51.249Z,30.4
2022-08-04T13:50:09.627Z,29.6
2022-08-04T13:52:31.481Z,29
2022-08-04T13:54:46.313Z,27.2
2022-08-04T13:57:01.165Z,26.3
2022-08-04T13:59:15.948Z,27.4
2022-08-04T14:01:35.440Z,27.7
2022-08-04T14:03:53.808Z,27.6
2022-08-04T14:06:17.361Z,27.5
2022-08-04T14:08:32.230Z,27.4
2022-08-04T14:10:50.787Z,27.4
2022-08-04T14:14:04.008Z,27.4
2022-08-04T14:16:34.643Z,27.6
2022-08-04T14:18:49.423Z,27.6
2022-08-04T14:21:04.308Z,27.7
2022-08-04T14:23:19.022Z,27.5
2022-08-04T14:25:35.509Z,26.6
2022-08-04T14:27:48.735Z,27.6
2022-08-04T14:33:59.488Z,27.3
2022-08-04T14:36:07.580Z,26.9
2022-08-04T14:38:50.417Z,27.1
2022-08-04T14:41:21.962Z,27.3
2022-08-04T14:43:36.722Z,27.1
2022-08-04T14:45:53.912Z,27.3
2022-08-04T14:48:05.875Z,27.3
2022-08-04T14:50:21.261Z,27.6
2022-08-04T14:52:37.441Z,28.4
2022-08-04T14:54:52.737Z,27.1
2022-08-04T14:57:18.824Z,25.9
2022-08-04T15:00:21.774Z,25.2
2022-08-04T15:02:36.751Z,27.1
2022-08-04T15:04:52.651Z,26.9
2022-08-04T15:07:49.898Z,28.6
2022-08-04T15:10:04.838Z,26.8
2022-08-04T15:12:20.013Z,27.1
2022-08-04T15:14:40.204Z,27.7
2022-08-04T15:17:28.964Z,27.7
2022-08-04T15:19:34.883Z,27.6
2022-08-04T15:21:49.790Z,27
2022-08-04T15:24:04.586Z,27.2
2022-08-04T15:26:18.873Z,27.8
2022-08-04T15:28:34.284Z,27.3
2022-08-04T15:31:03.039Z,26.8
2022-08-04T15:33:56.436Z,27.4
2022-08-04T15:36:10.948Z,27.4
2022-08-04T15:38:27.743Z,27.5
2022-08-04T15:40:40.515Z,26.8
2022-08-04T15:42:55.396Z,27
2022-08-04T15:45:10.056Z,27.2
2022-08-04T15:48:29.621Z,27.1
2022-08-04T15:50:46.066Z,27.1
2022-08-04T15:53:10.221Z,28.7
2022-08-04T15:55:36.103Z,27.4
2022-08-04T16:00:08.720Z,26.9
2022-08-04T16:02:29.605Z,28.8
2022-08-04T16:05:01.650Z,27.7
2022-08-04T16:07:16.281Z,28.3
2022-08-04T16:09:45.041Z,26.6
2022-08-04T16:11:48.683Z,26.5
2022-08-04T16:14:25.073Z,27.9
2022-08-04T16:16:39.842Z,27.3
2022-08-04T16:18:57.612Z,27.3
2022-08-04T16:21:12.559Z,27.1
2022-08-04T16:23:51.637Z,27.1
2022-08-04T16:25:55.456Z,27.5
2022-08-04T16:28:10.349Z,27.6
2022-08-04T16:30:25.527Z,27.9
2022-08-04T16:32:40.122Z,28.4
2022-08-04T16:35:42.202Z,28.1
2022-08-04T16:37:55.006Z,27.4
2022-08-04T16:40:09.632Z,28.3
2022-08-04T16:42:24.682Z,27.6
2022-08-04T16:44:54.653Z,27.3
2022-08-04T16:47:23.839Z,26.8
2022-08-04T16:49:49.220Z,26.9
2022-08-04T16:51:53.981Z,27.2
2022-08-04T16:54:40.054Z,27.9
2022-08-04T16:56:54.851Z,25.8
2022-08-04T16:59:11.082Z,26.6
2022-08-04T17:01:32.853Z,29.4
2022-08-04T17:05:56.972Z,27.6
2022-08-04T17:08:30.507Z,27.3
2022-08-04T17:10:45.320Z,27.6
2022-08-04T17:13:20.761Z,25.4
2022-08-04T17:15:52.339Z,25.7
2022-08-04T17:18:23.736Z,25.3
2022-08-04T17:20:58.862Z,27.1
2022-08-04T17:23:04.168Z,26.3
2022-08-04T17:26:12.048Z,25.9
2022-08-04T17:29:23.152Z,26.6
2022-08-04T17:31:47.859Z,26.4
2022-08-04T17:34:15.620Z,25.9
2022-08-04T17:36:28.213Z,30.1
2022-08-04T17:39:03.574Z,26.1
2022-08-04T17:41:38.848Z,28.1
2022-08-04T17:44:33.887Z,26.4
2022-08-04T17:47:12.597Z,25.9
2022-08-04T17:49:27.374Z,25.6
2022-08-04T17:52:10.325Z,25.6
2022-08-04T22:27:02.112Z,25.6
2022-08-04T22:29:16.955Z,22.1
2022-08-04T22:31:56.770Z,21.2
2022-08-04T22:34:27.833Z,21.9
2022-08-04T22:37:01.787Z,21.7
2022-08-04T22:42:06.601Z,22.1
2022-08-04T22:44:36.382Z,20.5
2022-08-04T22:46:50.630Z,20.8
2022-08-04T22:49:05.523Z,21.5
2022-08-04T22:51:31.444Z,20.6
2022-08-04T22:53:48.699Z,21.9
2022-08-04T22:56:37.661Z,22
2022-08-04T22:59:05.949Z,20.6
2022-08-04T23:01:20.833Z,21.8
2022-08-04T23:03:56.198Z,21.4
2022-08-04T23:06:10.749Z,22.1
2022-08-04T23:08:36.336Z,22.2
2022-08-04T23:10:53.183Z,20.7
2022-08-04T23:13:25.115Z,21.5
2022-08-04T23:17:54.751Z,21.6
2022-08-04T23:20:11.822Z,21.3
2022-08-04T23:22:42.465Z,20.4
2022-08-04T23:24:57.388Z,19.3
2022-08-04T23:27:26.543Z,20.7
2022-08-04T23:29:53.147Z,21.1
2022-08-04T23:34:23.966Z,17.8
2022-08-04T23:36:59.017Z,19.7
2022-08-04T23:39:42.457Z,21.6
2022-08-04T23:42:41.038Z,21.6
2022-08-04T23:48:32.367Z,21.1
2022-08-04T23:50:47.284Z,20.7
2022-08-04T23:53:02.046Z,20.9
2022-08-04T23:55:21.188Z,20.6
2022-08-04T23:58:05.191Z,20.6
